createdAt,value
2018-03-21T00:02:17.822Z,-3.30
2018-03-21T00:04:44.139Z,-3.40
2018-03-21T00:07:10.500Z,-3.40
2018-03-21T00:09:37.609Z,-3.50
2018-03-21T00:12:04.041Z,-3.40
2018-03-21T00:14:30.342Z,-3.50
2018-03-21T00:16:58.303Z,-3.50
2018-03-21T00:19:24.654Z,-3.50
2018-03-21T00:21:50.988Z,-3.50
2018-03-21T00:24:17.423Z,-3.50
2018-03-21T00:26:43.755Z,-3.60
2018-03-21T00:29:10.175Z,-3.60
2018-03-21T00:31:36.507Z,-3.60
2018-03-21T00:34:02.864Z,-3.60
2018-03-21T00:36:29.964Z,-3.80
2018-03-21T00:38:56.388Z,-3.80
2018-03-21T00:41:22.740Z,-3.80
2018-03-21T00:43:49.101Z,-3.90
2018-03-21T00:46:15.431Z,-3.90
2018-03-21T00:48:41.812Z,-3.80
2018-03-21T00:51:08.199Z,-3.80
2018-03-21T00:53:34.521Z,-3.90
2018-03-21T00:56:01.624Z,-4.00
2018-03-21T00:58:28.806Z,-4.10
2018-03-21T01:00:55.155Z,-4.10
2018-03-21T01:03:21.538Z,-4.10
2018-03-21T01:05:48.007Z,-4.00
2018-03-21T01:08:14.395Z,-4.00
2018-03-21T01:10:40.779Z,-3.90
2018-03-21T01:13:07.119Z,-3.90
2018-03-21T01:15:34.212Z,-3.90
2018-03-21T01:18:00.534Z,-3.90
2018-03-21T01:20:26.878Z,-3.90
2018-03-21T01:22:53.236Z,-3.90
2018-03-21T01:25:19.613Z,-3.90
2018-03-21T01:27:46.717Z,-4.00
2018-03-21T01:30:13.119Z,-4.00
2018-03-21T01:32:39.489Z,-4.00
2018-03-21T01:35:06.489Z,-4.10
2018-03-21T01:37:33.638Z,-4.10
2018-03-21T01:39:59.999Z,-4.20
2018-03-21T01:42:26.322Z,-4.20
2018-03-21T01:44:52.738Z,-4.30
2018-03-21T01:47:19.062Z,-4.20
2018-03-21T01:49:46.181Z,-4.30
2018-03-21T01:52:12.534Z,-4.30
2018-03-21T01:54:39.640Z,-4.30
2018-03-21T01:57:06.034Z,-4.40
2018-03-21T01:59:32.364Z,-4.40
2018-03-21T02:01:58.744Z,-4.40
2018-03-21T02:04:25.070Z,-4.50
2018-03-21T02:06:51.430Z,-4.50
2018-03-21T02:09:17.771Z,-4.60
2018-03-21T02:11:44.171Z,-4.70
2018-03-21T02:14:10.509Z,-4.70
2018-03-21T02:16:36.867Z,-4.70
2018-03-21T02:19:03.239Z,-4.70
2018-03-21T02:21:30.356Z,-4.80
2018-03-21T02:23:56.706Z,-4.80
2018-03-21T02:26:23.107Z,-4.70
2018-03-21T02:28:50.260Z,-4.60
2018-03-21T02:31:17.392Z,-4.60
2018-03-21T02:33:43.833Z,-4.60
2018-03-21T02:36:10.224Z,-4.60
2018-03-21T02:38:36.591Z,-4.60
2018-03-21T02:41:02.981Z,-4.60
2018-03-21T02:43:29.307Z,-4.70
2018-03-21T02:45:55.671Z,-4.70
2018-03-21T02:48:22.804Z,-4.80
2018-03-21T02:50:49.158Z,-4.80
2018-03-21T02:53:15.554Z,-4.80
2018-03-21T02:55:42.662Z,-4.90
2018-03-21T02:58:09.013Z,-4.90
2018-03-21T03:00:35.351Z,-4.90
2018-03-21T03:03:01.770Z,-4.90
2018-03-21T03:05:28.159Z,-4.70
2018-03-21T03:07:55.302Z,-5.00
2018-03-21T03:10:21.675Z,-5.00
2018-03-21T03:12:48.051Z,-5.00
2018-03-21T03:15:15.112Z,-5.00
2018-03-21T03:17:41.498Z,-5.10
2018-03-21T03:20:08.341Z,-5.00
2018-03-21T03:22:34.725Z,-5.00
2018-03-21T03:25:01.054Z,-5.10
2018-03-21T03:27:27.419Z,-5.10
2018-03-21T03:29:53.816Z,-5.10
2018-03-21T03:32:20.236Z,-4.80
2018-03-21T03:34:46.594Z,-4.90
2018-03-21T03:37:12.960Z,-5.00
2018-03-21T03:39:40.132Z,-4.90
2018-03-21T03:42:06.495Z,-4.90
2018-03-21T03:44:33.601Z,-4.90
2018-03-21T03:46:59.969Z,-4.90
2018-03-21T03:49:26.352Z,-4.90
2018-03-21T03:51:53.458Z,-4.60
2018-03-21T03:54:19.857Z,-4.50
2018-03-21T03:56:46.962Z,-4.30
2018-03-21T03:59:13.310Z,-4.30
2018-03-21T04:01:39.644Z,-4.10
2018-03-21T04:04:06.003Z,-3.90
2018-03-21T04:06:32.314Z,-3.90
2018-03-21T04:08:58.688Z,-3.90
2018-03-21T04:11:25.808Z,-3.50
2018-03-21T04:13:52.186Z,-3.50
2018-03-21T04:16:18.576Z,-3.30
2018-03-21T04:18:45.019Z,-3.00
2018-03-21T04:21:11.474Z,-2.90
2018-03-21T04:23:37.856Z,-3.00
2018-03-21T04:26:05.039Z,-2.60
2018-03-21T04:28:31.438Z,-2.70
2018-03-21T04:30:57.773Z,-2.60
2018-03-21T04:33:24.208Z,-2.60
2018-03-21T04:35:51.284Z,-2.40
2018-03-21T04:38:17.611Z,-2.40
2018-03-21T04:40:44.021Z,-2.30
2018-03-21T04:43:10.328Z,-2.30
2018-03-21T04:45:36.695Z,-2.30
2018-03-21T04:48:03.859Z,-2.30
2018-03-21T04:50:30.291Z,-2.30
2018-03-21T04:52:57.396Z,-2.20
2018-03-21T04:55:23.780Z,-2.20
2018-03-21T04:57:50.175Z,-2.20
2018-03-21T05:00:17.296Z,-2.20
2018-03-21T05:02:43.850Z,-2.20
2018-03-21T05:05:10.272Z,-2.10
2018-03-21T05:07:36.633Z,-2.10
2018-03-21T05:10:03.497Z,-2.10
2018-03-21T05:12:30.803Z,-2.10
2018-03-21T05:14:57.236Z,-2.10
2018-03-21T05:17:23.656Z,-2.00
2018-03-21T05:19:50.086Z,-2.00
2018-03-21T05:22:16.525Z,-2.00
2018-03-21T05:24:43.909Z,-2.00
2018-03-21T05:27:10.339Z,-2.00
2018-03-21T05:29:37.499Z,-2.00
2018-03-21T05:32:04.208Z,-2.00
2018-03-21T05:34:30.710Z,-1.90
2018-03-21T05:36:57.149Z,-1.90
2018-03-21T05:39:23.576Z,-1.60
2018-03-21T05:41:50.021Z,-1.70
2018-03-21T05:44:17.473Z,-1.90
2018-03-21T05:46:43.948Z,-2.00
2018-03-21T05:49:10.343Z,-1.90
2018-03-21T05:51:36.732Z,-1.80
2018-03-21T05:54:03.917Z,-1.70
2018-03-21T05:56:31.051Z,-1.70
2018-03-21T05:58:57.465Z,-1.70
2018-03-21T06:01:23.891Z,-1.50
2018-03-21T06:03:50.314Z,-1.60
2018-03-21T06:06:17.477Z,-1.50
2018-03-21T06:08:43.866Z,-1.60
2018-03-21T06:11:10.287Z,-1.50
2018-03-21T06:13:36.742Z,-1.60
2018-03-21T06:16:03.868Z,-1.40
2018-03-21T06:18:30.332Z,-1.40
2018-03-21T06:20:57.543Z,-1.20
2018-03-21T06:23:23.967Z,-1.20
2018-03-21T06:25:51.168Z,-1.10
2018-03-21T06:28:18.283Z,-1.00
2018-03-21T06:30:44.676Z,-1.00
2018-03-21T06:33:11.082Z,-0.90
2018-03-21T06:35:38.263Z,-0.80
2018-03-21T06:38:04.801Z,-1.10
2018-03-21T06:40:31.937Z,-0.70
2018-03-21T06:42:58.381Z,-0.70
2018-03-21T06:45:24.714Z,-0.60
2018-03-21T06:47:51.176Z,-0.50
2018-03-21T06:50:17.561Z,-0.40
2018-03-21T06:52:43.955Z,-0.20
2018-03-21T06:55:10.394Z,-0.20
2018-03-21T06:57:36.761Z,-0.10
2018-03-21T07:00:03.556Z,-0.10
2018-03-21T07:02:30.051Z,0.10
2018-03-21T07:04:56.385Z,0.10
2018-03-21T07:07:22.815Z,0.20
2018-03-21T07:09:49.360Z,0.20
2018-03-21T07:12:15.716Z,0.30
2018-03-21T07:14:55.289Z,0.30
2018-03-21T07:17:21.639Z,0.30
2018-03-21T07:19:48.756Z,0.30
2018-03-21T07:22:15.192Z,0.30
2018-03-21T07:24:41.623Z,0.30
2018-03-21T07:27:08.038Z,0.30
2018-03-21T07:29:34.470Z,0.30
2018-03-21T07:32:00.860Z,0.40
2018-03-21T07:34:27.987Z,0.60
2018-03-21T07:36:54.439Z,0.60
2018-03-21T07:39:20.836Z,0.30
2018-03-21T07:41:47.289Z,0.70
2018-03-21T07:44:13.701Z,0.70
2018-03-21T07:46:40.125Z,0.70
2018-03-21T07:49:08.051Z,0.80
2018-03-21T07:51:35.332Z,0.90
2018-03-21T07:54:01.731Z,0.90
2018-03-21T07:56:28.166Z,1.00
2018-03-21T07:58:54.585Z,1.20
2018-03-21T08:01:21.731Z,1.40
2018-03-21T08:03:48.134Z,1.40
2018-03-21T08:06:14.492Z,1.60
2018-03-21T08:08:40.894Z,1.70
2018-03-21T08:11:08.024Z,2.00
2018-03-21T08:13:34.430Z,1.90
2018-03-21T08:16:01.565Z,2.10
2018-03-21T08:18:28.003Z,2.00
2018-03-21T08:20:54.434Z,2.10
2018-03-21T08:23:20.823Z,2.10
2018-03-21T08:25:47.255Z,2.00
2018-03-21T08:28:14.384Z,1.90
2018-03-21T08:30:40.804Z,1.90
2018-03-21T08:33:07.929Z,1.90
2018-03-21T08:35:34.358Z,1.90
2018-03-21T08:38:00.755Z,2.00
2018-03-21T08:40:27.172Z,2.00
2018-03-21T08:42:54.315Z,2.20
2018-03-21T08:45:20.786Z,2.20
2018-03-21T08:47:54.177Z,2.30
2018-03-21T08:50:21.409Z,2.70
2018-03-21T08:52:47.828Z,2.70
2018-03-21T08:55:14.961Z,3.00
2018-03-21T08:57:41.381Z,3.20
2018-03-21T09:00:07.857Z,3.50
2018-03-21T09:02:34.248Z,3.70
2018-03-21T09:05:00.644Z,3.80
2018-03-21T09:07:27.098Z,3.70
2018-03-21T09:09:53.593Z,3.50
2018-03-21T09:12:20.046Z,3.40
2018-03-21T09:14:46.586Z,3.40
2018-03-21T09:17:13.060Z,3.30
2018-03-21T09:19:39.461Z,3.30
2018-03-21T09:22:05.997Z,3.20
2018-03-21T09:24:32.416Z,3.00
2018-03-21T09:26:59.653Z,2.90
2018-03-21T09:29:26.087Z,2.80
2018-03-21T09:31:52.515Z,2.80
2018-03-21T09:34:19.663Z,2.60
2018-03-21T09:36:46.850Z,2.60
2018-03-21T09:39:13.219Z,2.60
2018-03-21T09:41:39.673Z,2.80
2018-03-21T09:44:06.070Z,3.00
2018-03-21T09:46:32.501Z,3.10
2018-03-21T09:48:59.677Z,3.30
2018-03-21T09:51:26.864Z,3.30
2018-03-21T09:53:53.263Z,3.30
2018-03-21T09:56:19.669Z,3.50
2018-03-21T09:58:46.151Z,3.80
2018-03-21T10:01:12.532Z,4.30
2018-03-21T10:03:38.970Z,4.50
2018-03-21T10:06:05.373Z,4.60
2018-03-21T10:08:32.527Z,4.90
2018-03-21T10:11:00.780Z,4.90
2018-03-21T10:13:27.950Z,4.40
2018-03-21T10:15:55.178Z,4.00
2018-03-21T10:18:21.681Z,4.00
2018-03-21T10:20:48.070Z,3.80
2018-03-21T10:23:14.537Z,3.40
2018-03-21T10:25:40.999Z,3.90
2018-03-21T10:28:07.495Z,4.30
2018-03-21T10:30:33.879Z,4.40
2018-03-21T10:33:00.279Z,4.70
2018-03-21T10:35:27.408Z,4.80
2018-03-21T10:37:53.860Z,4.70
2018-03-21T10:40:20.258Z,4.80
2018-03-21T10:42:46.737Z,4.60
2018-03-21T10:45:13.133Z,4.50
2018-03-21T10:47:39.631Z,4.30
2018-03-21T10:50:06.273Z,4.20
2018-03-21T10:52:38.912Z,4.30
2018-03-21T10:54:59.133Z,4.40
2018-03-21T10:57:25.561Z,4.40
2018-03-21T10:59:52.045Z,4.60
2018-03-21T11:02:18.533Z,4.50
2018-03-21T11:04:44.940Z,4.60
2018-03-21T11:07:11.372Z,5.00
2018-03-21T11:09:38.031Z,5.30
2018-03-21T11:12:05.127Z,5.40
2018-03-21T11:14:32.317Z,6.20
2018-03-21T11:16:58.710Z,6.10
2018-03-21T11:19:25.141Z,6.20
2018-03-21T11:21:52.321Z,6.30
2018-03-21T11:24:18.704Z,6.30
2018-03-21T11:26:45.846Z,6.40
2018-03-21T11:29:12.228Z,6.30
2018-03-21T11:31:38.619Z,6.60
2018-03-21T11:34:05.842Z,7.20
2018-03-21T11:36:32.191Z,7.10
2018-03-21T11:38:58.563Z,7.00
2018-03-21T11:41:26.435Z,7.10
2018-03-21T11:43:52.909Z,7.10
2018-03-21T11:46:19.381Z,7.60
2018-03-21T11:48:45.764Z,7.40
2018-03-21T11:51:12.154Z,7.70
2018-03-21T11:53:38.534Z,7.80
2018-03-21T11:56:04.974Z,7.80
2018-03-21T11:58:31.414Z,7.20
2018-03-21T12:00:58.658Z,7.10
2018-03-21T12:03:25.079Z,7.10
2018-03-21T12:05:52.298Z,8.20
2018-03-21T12:08:18.655Z,8.10
2018-03-21T12:10:45.169Z,8.70
2018-03-21T12:13:12.275Z,8.20
2018-03-21T12:15:38.680Z,8.00
2018-03-21T12:18:05.814Z,8.60
2018-03-21T12:20:32.219Z,8.60
2018-03-21T12:23:05.481Z,8.80
2018-03-21T12:25:32.094Z,8.90
2018-03-21T12:27:58.488Z,9.10
2018-03-21T12:30:25.646Z,9.00
2018-03-21T12:32:55.848Z,9.00
2018-03-21T12:35:22.235Z,9.00
2018-03-21T12:37:48.693Z,9.20
2018-03-21T12:40:15.135Z,9.10
2018-03-21T12:42:41.583Z,9.20
2018-03-21T12:45:07.940Z,9.10
2018-03-21T12:47:34.359Z,8.80
2018-03-21T12:50:00.762Z,8.60
2018-03-21T12:52:27.171Z,8.80
2018-03-21T12:54:53.536Z,8.40
2018-03-21T12:57:21.032Z,8.10
2018-03-21T12:59:47.456Z,7.90
2018-03-21T13:02:13.938Z,7.70
2018-03-21T13:04:40.416Z,7.50
2018-03-21T13:07:07.666Z,7.10
2018-03-21T13:09:35.491Z,6.80
2018-03-21T13:12:01.895Z,6.80
2018-03-21T13:14:29.035Z,6.70
2018-03-21T13:16:55.448Z,6.70
2018-03-21T13:19:22.530Z,8.30
2018-03-21T13:21:48.887Z,8.20
2018-03-21T13:24:15.241Z,8.90
2018-03-21T13:26:41.681Z,9.00
2018-03-21T13:29:08.834Z,8.90
2018-03-21T13:31:35.242Z,8.60
2018-03-21T13:34:01.599Z,8.60
2018-03-21T13:36:28.040Z,8.70
2018-03-21T13:38:54.435Z,8.70
2018-03-21T13:41:21.027Z,8.80
2018-03-21T13:43:47.444Z,8.80
2018-03-21T13:46:13.859Z,8.60
2018-03-21T13:48:40.307Z,8.50
2018-03-21T13:51:06.679Z,8.00
2018-03-21T13:53:34.574Z,7.80
2018-03-21T13:56:01.695Z,7.50
2018-03-21T13:58:28.109Z,7.60
2018-03-21T14:00:55.334Z,7.40
2018-03-21T14:03:21.780Z,7.40
2018-03-21T14:05:48.900Z,7.30
2018-03-21T14:08:15.376Z,7.30
2018-03-21T14:10:43.288Z,7.00
2018-03-21T14:13:09.665Z,7.10
2018-03-21T14:15:36.752Z,7.00
2018-03-21T14:18:03.324Z,6.90
2018-03-21T14:20:29.729Z,6.80
2018-03-21T14:22:56.155Z,6.80
2018-03-21T14:25:23.365Z,7.00
2018-03-21T14:27:49.803Z,7.00
2018-03-21T14:30:17.026Z,7.30
2018-03-21T14:32:43.435Z,7.30
2018-03-21T14:35:17.524Z,7.00
2018-03-21T14:37:44.668Z,7.00
2018-03-21T14:40:11.093Z,6.90
2018-03-21T14:42:38.431Z,7.00
2018-03-21T14:45:05.633Z,7.00
2018-03-21T14:47:31.999Z,7.00
2018-03-21T14:49:58.404Z,7.10
2018-03-21T14:52:24.802Z,7.10
2018-03-21T14:54:52.009Z,7.00
2018-03-21T14:57:18.407Z,6.90
2018-03-21T14:59:44.809Z,7.00
2018-03-21T15:02:11.222Z,7.20
2018-03-21T15:04:37.728Z,7.30
2018-03-21T15:07:04.179Z,7.40
2018-03-21T15:09:30.604Z,7.40
2018-03-21T15:11:57.027Z,7.20
2018-03-21T15:14:24.152Z,7.00
2018-03-21T15:16:50.569Z,7.00
2018-03-21T15:19:17.010Z,7.10
2018-03-21T15:21:43.414Z,7.20
2018-03-21T15:24:15.764Z,7.40
2018-03-21T15:26:42.233Z,7.50
2018-03-21T15:29:08.640Z,7.50
2018-03-21T15:31:35.064Z,7.40
2018-03-21T15:34:02.325Z,7.00
2018-03-21T15:36:28.793Z,6.90
2018-03-21T15:38:55.936Z,6.70
2018-03-21T15:41:22.353Z,6.70
2018-03-21T15:43:48.823Z,6.70
2018-03-21T15:46:15.260Z,6.60
2018-03-21T15:48:41.669Z,6.50
2018-03-21T15:51:08.814Z,6.40
2018-03-21T15:53:35.181Z,6.40
2018-03-21T15:56:01.632Z,6.40
2018-03-21T15:58:28.046Z,6.40
2018-03-21T16:00:54.514Z,6.40
2018-03-21T16:03:20.874Z,6.40
2018-03-21T16:05:48.003Z,6.30
2018-03-21T16:08:14.408Z,6.30
2018-03-21T16:10:41.548Z,6.10
2018-03-21T16:13:07.889Z,6.10
2018-03-21T16:15:34.325Z,5.30
2018-03-21T16:18:02.201Z,6.30
2018-03-21T16:20:29.335Z,6.40
2018-03-21T16:22:55.782Z,6.30
2018-03-21T16:25:22.230Z,6.30
2018-03-21T16:27:48.708Z,6.30
2018-03-21T16:30:15.077Z,6.30
2018-03-21T16:32:41.533Z,6.30
2018-03-21T16:35:07.904Z,6.30
2018-03-21T16:37:34.295Z,6.20
2018-03-21T16:40:00.679Z,6.20
2018-03-21T16:42:27.155Z,6.20
2018-03-21T16:44:53.585Z,6.20
2018-03-21T16:47:19.940Z,6.20
2018-03-21T16:49:47.052Z,6.00
2018-03-21T16:52:13.449Z,6.00
2018-03-21T16:54:39.870Z,6.00
2018-03-21T16:57:06.281Z,6.10
2018-03-21T16:59:32.671Z,6.10
2018-03-21T17:01:59.040Z,6.20
2018-03-21T17:04:26.880Z,6.40
2018-03-21T17:06:53.375Z,6.40
2018-03-21T17:09:20.520Z,6.40
2018-03-21T17:11:47.029Z,6.40
2018-03-21T17:14:14.403Z,6.10
2018-03-21T17:16:41.523Z,5.90
2018-03-21T17:19:07.890Z,5.80
2018-03-21T17:21:34.258Z,5.70
2018-03-21T17:24:01.465Z,5.40
2018-03-21T17:26:27.873Z,5.40
2018-03-21T17:28:54.618Z,5.20
2018-03-21T17:31:21.069Z,5.10
2018-03-21T17:33:48.215Z,4.80
2018-03-21T17:36:14.735Z,4.80
2018-03-21T17:38:41.906Z,4.70
2018-03-21T17:41:08.233Z,4.70
2018-03-21T17:43:34.592Z,4.60
2018-03-21T17:46:00.966Z,4.60
2018-03-21T17:48:27.385Z,4.50
2018-03-21T17:50:54.568Z,4.40
2018-03-21T17:53:21.006Z,4.30
2018-03-21T17:55:47.359Z,4.30
2018-03-21T17:58:13.775Z,4.30
2018-03-21T18:00:40.188Z,4.20
2018-03-21T18:03:06.614Z,4.20
2018-03-21T18:05:33.036Z,4.20
2018-03-21T18:07:59.412Z,4.10
2018-03-21T18:10:25.812Z,4.00
2018-03-21T18:12:52.918Z,3.90
2018-03-21T18:15:19.312Z,3.90
2018-03-21T18:17:46.393Z,3.90
2018-03-21T18:20:12.824Z,3.90
2018-03-21T18:22:39.949Z,3.60
2018-03-21T18:25:06.348Z,3.40
2018-03-21T18:27:33.542Z,3.40
2018-03-21T18:30:00.040Z,3.40
2018-03-21T18:32:26.416Z,3.40
2018-03-21T18:34:52.808Z,3.30
2018-03-21T18:37:19.160Z,3.20
2018-03-21T18:39:45.528Z,3.30
2018-03-21T18:42:11.871Z,3.40
2018-03-21T18:44:38.309Z,3.30
2018-03-21T18:47:04.713Z,3.20
2018-03-21T18:49:31.132Z,3.20
2018-03-21T18:51:57.539Z,3.20
2018-03-21T18:54:24.684Z,3.30
2018-03-21T18:56:51.061Z,3.30
2018-03-21T18:59:17.414Z,3.30
2018-03-21T19:01:43.792Z,3.40
2018-03-21T19:04:10.148Z,3.30
2018-03-21T19:06:36.580Z,3.30
2018-03-21T19:09:03.739Z,3.40
2018-03-21T19:11:30.109Z,3.30
2018-03-21T19:13:56.494Z,3.40
2018-03-21T19:16:22.865Z,3.40
2018-03-21T19:18:49.236Z,3.40
2018-03-21T19:21:15.596Z,3.50
2018-03-21T19:23:42.684Z,3.50
2018-03-21T19:26:09.081Z,3.50
2018-03-21T19:28:36.160Z,3.50
2018-03-21T19:31:02.483Z,3.60
2018-03-21T19:33:28.767Z,3.50
2018-03-21T19:35:55.099Z,3.60
2018-03-21T19:38:21.417Z,3.60
2018-03-21T19:40:47.796Z,3.60
2018-03-21T19:43:14.899Z,3.60
2018-03-21T19:45:41.302Z,3.50
2018-03-21T19:48:08.382Z,3.40
2018-03-21T19:50:35.565Z,3.40
2018-03-21T19:53:02.036Z,3.00
2018-03-21T19:55:29.116Z,3.30
2018-03-21T19:57:55.556Z,3.20
2018-03-21T20:00:21.882Z,3.20
2018-03-21T20:02:49.106Z,3.00
2018-03-21T20:05:15.407Z,3.60
2018-03-21T20:07:41.798Z,2.90
2018-03-21T20:10:08.217Z,2.90
2018-03-21T20:12:34.612Z,2.80
2018-03-21T20:15:00.997Z,2.80
2018-03-21T20:17:27.329Z,2.80
2018-03-21T20:19:53.691Z,2.70
2018-03-21T20:22:20.060Z,2.80
2018-03-21T20:24:46.439Z,2.70
2018-03-21T20:27:13.563Z,2.70
2018-03-21T20:29:39.884Z,2.70
2018-03-21T20:32:06.229Z,2.70
2018-03-21T20:34:32.544Z,2.60
2018-03-21T20:36:58.904Z,2.70
2018-03-21T20:39:25.248Z,2.50
2018-03-21T20:41:51.623Z,2.40
2018-03-21T20:44:18.003Z,2.30
2018-03-21T20:46:44.362Z,2.30
2018-03-21T20:49:11.435Z,2.20
2018-03-21T20:51:37.743Z,2.20
2018-03-21T20:54:04.575Z,2.20
2018-03-21T20:56:30.961Z,1.80
2018-03-21T20:58:57.364Z,2.10
2018-03-21T21:01:23.706Z,1.60
2018-03-21T21:03:50.057Z,2.00
2018-03-21T21:06:16.375Z,2.00
2018-03-21T21:08:42.716Z,2.00
2018-03-21T21:11:09.059Z,1.90
2018-03-21T21:13:35.367Z,1.80
2018-03-21T21:16:01.766Z,1.80
2018-03-21T21:18:28.111Z,1.80
2018-03-21T21:20:54.533Z,1.90
2018-03-21T21:23:20.962Z,2.30
2018-03-21T21:25:47.367Z,2.00
2018-03-21T21:28:13.730Z,1.90
2018-03-21T21:30:40.964Z,1.90
2018-03-21T21:33:07.307Z,1.80
2018-03-21T21:35:33.731Z,1.70
2018-03-21T21:38:00.162Z,1.70
2018-03-21T21:40:26.539Z,1.90
2018-03-21T21:42:52.876Z,1.70
2018-03-21T21:45:19.291Z,1.70
2018-03-21T21:47:45.606Z,1.70
2018-03-21T21:50:11.975Z,1.60
2018-03-21T21:52:38.352Z,1.60
2018-03-21T21:55:05.526Z,1.60
2018-03-21T21:57:32.649Z,1.60
2018-03-21T21:59:59.040Z,1.60
2018-03-21T22:02:26.127Z,1.70
2018-03-21T22:04:52.500Z,1.60
2018-03-21T22:07:18.902Z,1.70
2018-03-21T22:09:45.293Z,1.70
2018-03-21T22:12:17.708Z,1.70
2018-03-21T22:14:44.855Z,1.60
2018-03-21T22:17:11.948Z,1.80
2018-03-21T22:19:39.064Z,1.70
2018-03-21T22:22:06.887Z,1.90
2018-03-21T22:24:33.260Z,1.90
2018-03-21T22:26:59.587Z,1.90
2018-03-21T22:29:25.934Z,1.90
2018-03-21T22:31:52.281Z,1.80
2018-03-21T22:34:18.631Z,1.90
2018-03-21T22:36:45.025Z,2.10
2018-03-21T22:39:11.355Z,2.00
2018-03-21T22:41:37.711Z,2.00
2018-03-21T22:44:04.447Z,2.00
2018-03-21T22:46:30.856Z,2.00
2018-03-21T22:48:57.178Z,2.00
2018-03-21T22:51:23.547Z,2.00
2018-03-21T22:53:49.883Z,2.00
2018-03-21T22:56:16.243Z,2.00
2018-03-21T22:58:42.622Z,2.20
2018-03-21T23:01:08.972Z,1.90
2018-03-21T23:03:35.324Z,1.90
2018-03-21T23:06:01.659Z,2.00
2018-03-21T23:08:28.804Z,1.80
2018-03-21T23:10:55.142Z,1.70
2018-03-21T23:13:22.202Z,1.80
2018-03-21T23:15:48.590Z,1.60
2018-03-21T23:18:15.661Z,1.80
2018-03-21T23:20:42.019Z,2.00
2018-03-21T23:23:08.340Z,1.80
2018-03-21T23:25:34.696Z,1.90
2018-03-21T23:28:01.048Z,2.20
2018-03-21T23:30:28.880Z,2.00
2018-03-21T23:32:55.955Z,2.00
2018-03-21T23:35:22.300Z,2.00
2018-03-21T23:37:48.693Z,2.10
2018-03-21T23:40:15.889Z,2.20
2018-03-21T23:42:42.986Z,2.20
2018-03-21T23:45:09.316Z,2.20
2018-03-21T23:47:35.675Z,2.30
2018-03-21T23:50:02.029Z,2.30
2018-03-21T23:52:29.885Z,2.20
2018-03-21T23:54:56.261Z,2.30
2018-03-21T23:57:22.658Z,2.30
2018-03-21T23:59:48.988Z,2.30
